Port Jefferson, Ohio
Current Conditions -  °F | °C
As of 4:30 PM on Saturday 22 Nov 2014 (Local Time) from KEDJ Reporting Station
Broken Clouds Broken Clouds  
Wind Chill: 43°   Ceiling: 4000
Heat Index: 48°   Visibility: 10mi
Dew Point: 39°   Wind: 14mph
Humidity: 71%   Direction: 190°S
Pressure: 30.06"   Gusts: NA
Location:  40.33°N, 84.09°W
Report Text: KEDJ 222130Z AUTO 19012KT 10SM BKN040 09/04 A3006 RMK AO1
Loading
Personal Weather Stations






























Interactive Weather Map New forecast layout! Learn more

10-Day Weather Forecast

Advertisements
Track Severe Weather on mobile